createdAt,value
2023-04-18T00:10:29.298Z,102277.53
2023-04-18T00:12:55.148Z,102280.75
2023-04-18T00:15:21.610Z,102279.59
2023-04-18T00:17:48.227Z,102239.84
2023-04-18T00:20:14.982Z,102282.66
2023-04-18T00:22:42.625Z,102262.84
2023-04-18T00:25:11.033Z,102254.47
2023-04-18T00:27:41.663Z,102277.03
2023-04-18T00:30:09.108Z,102274.97
2023-04-18T00:32:35.674Z,102272.97
2023-04-18T00:35:02.366Z,102258.88
2023-04-18T00:37:29.292Z,102270.88
2023-04-18T00:39:55.735Z,102280.84
2023-04-18T00:42:22.730Z,102262.22
2023-04-18T00:44:49.166Z,102267.09
2023-04-18T00:47:17.450Z,102277.91
2023-04-18T00:49:45.025Z,102264.94
2023-04-18T00:52:15.511Z,102262.94
2023-04-18T00:54:42.919Z,102262.47
2023-04-18T00:57:09.447Z,102257.97
2023-04-18T00:59:35.953Z,102248.84
2023-04-18T01:02:05.715Z,102266.63
2023-04-18T01:04:32.646Z,102266.88
2023-04-18T01:07:00.049Z,102250.84
2023-04-18T01:09:26.867Z,102266.75
2023-04-18T01:11:53.320Z,102261.31
2023-04-18T01:14:20.677Z,102272.22
2023-04-18T01:16:48.334Z,102268.88
2023-04-18T01:19:17.375Z,102259.38
2023-04-18T01:21:44.018Z,102263.28
2023-04-18T01:24:12.654Z,102258.06
2023-04-18T01:26:39.807Z,102261.88
2023-04-18T01:29:06.762Z,102266.03
2023-04-18T01:31:37.768Z,102264.75
2023-04-18T01:34:05.144Z,102257.50
2023-04-18T01:36:32.681Z,102256.66
2023-04-18T01:38:59.924Z,102266.84
2023-04-18T01:41:29.067Z,102251.69
2023-04-18T01:43:55.671Z,102258.06
2023-04-18T01:46:22.165Z,102222.50
2023-04-18T01:48:48.587Z,102267.69
2023-04-18T01:51:15.229Z,102240.06
2023-04-18T01:53:41.964Z,102257.50
2023-04-18T01:56:10.252Z,102253.69
2023-04-18T01:58:37.237Z,102259.97
2023-04-18T02:01:04.053Z,102256.53
2023-04-18T02:03:31.114Z,102218.69
2023-04-18T02:05:57.692Z,102229.75
2023-04-18T02:08:24.184Z,102241.47
2023-04-18T02:10:50.778Z,102233.41
2023-04-18T02:13:17.406Z,102232.31
2023-04-18T02:15:45.885Z,102236.38
2023-04-18T02:18:12.513Z,102224.84
2023-04-18T02:20:39.226Z,102237.31
2023-04-18T02:23:06.244Z,102236.50
2023-04-18T02:25:33.096Z,102237.53
2023-04-18T02:27:59.792Z,102226.53
2023-04-18T02:30:26.666Z,102227.47
2023-04-18T02:32:59.062Z,102225.94
2023-04-18T02:35:27.171Z,102245.50
2023-04-18T02:37:59.856Z,102241.34
2023-04-18T02:40:26.615Z,102151.81
2023-04-18T02:42:53.073Z,102231.16
2023-04-18T02:45:19.532Z,102223.09
2023-04-18T02:47:57.235Z,102240.28
2023-04-18T02:50:24.817Z,102243.75
2023-04-18T02:52:51.458Z,102226.66
2023-04-18T02:55:18.002Z,102232.72
2023-04-18T02:57:44.537Z,102226.41
2023-04-18T03:00:11.815Z,102247.91
2023-04-18T03:02:38.373Z,102209.53
2023-04-18T03:05:06.282Z,102243.25
2023-04-18T03:07:32.872Z,102240.63
2023-04-18T03:09:59.980Z,102205.88
2023-04-18T03:12:26.417Z,102216.19
2023-04-18T03:14:52.952Z,102232.22
2023-04-18T03:17:19.558Z,102236.13
2023-04-18T03:19:46.491Z,102249.16
2023-04-18T03:22:14.299Z,102246.81
2023-04-18T03:24:40.838Z,102227.81
2023-04-18T03:27:07.572Z,102225.22
2023-04-18T03:29:34.180Z,102236.47
2023-04-18T03:32:00.840Z,102238.75
2023-04-18T03:34:27.401Z,102235.66
2023-04-18T03:36:54.239Z,102241.22
2023-04-18T03:39:20.857Z,102237.06
2023-04-18T03:41:47.364Z,102258.31
2023-04-18T03:44:13.956Z,102245.63
2023-04-18T03:46:41.187Z,102248.69
2023-04-18T03:49:07.847Z,102259.34
2023-04-18T03:51:43.164Z,102264.47
2023-04-18T03:54:09.683Z,102226.16
2023-04-18T03:56:36.221Z,102252.00
2023-04-18T03:59:02.662Z,102254.84
2023-04-18T04:01:29.212Z,102269.09
2023-04-18T04:03:57.748Z,102255.78
2023-04-18T04:06:24.545Z,102271.81
2023-04-18T04:08:50.978Z,102265.41
2023-04-18T04:11:29.466Z,102232.53
2023-04-18T04:13:55.887Z,102255.19
2023-04-18T04:16:22.929Z,102189.09
2023-04-18T04:19:13.867Z,102275.84
2023-04-18T04:21:40.356Z,102246.50
2023-04-18T04:24:08.788Z,102267.06
2023-04-18T04:26:35.705Z,102216.25
2023-04-18T04:29:03.511Z,102246.75
2023-04-18T04:31:30.193Z,102263.31
2023-04-18T04:33:56.641Z,102273.09
2023-04-18T04:36:24.657Z,102277.44
2023-04-18T04:38:57.056Z,102278.41
2023-04-18T04:41:24.589Z,102271.41
2023-04-18T04:43:52.287Z,102272.22
2023-04-18T04:46:20.031Z,102260.31
2023-04-18T04:48:46.736Z,102271.63
2023-04-18T04:51:13.144Z,102284.91
2023-04-18T04:53:39.608Z,102274.34
2023-04-18T04:56:07.148Z,102292.28
2023-04-18T04:58:33.730Z,102280.31
2023-04-18T05:01:00.600Z,102285.03
2023-04-18T05:03:27.844Z,102249.06
2023-04-18T05:05:56.567Z,102302.63
2023-04-18T05:08:23.085Z,102261.78
2023-04-18T05:10:50.179Z,102267.97
2023-04-18T05:13:17.144Z,102298.75
2023-04-18T05:15:43.838Z,102314.13
2023-04-18T05:18:10.399Z,102295.63
2023-04-18T05:20:36.887Z,102314.38
2023-04-18T05:23:03.346Z,102310.44
2023-04-18T05:25:30.029Z,102314.00
2023-04-18T05:28:04.620Z,102313.66
2023-04-18T05:30:31.270Z,102323.81
2023-04-18T05:32:57.755Z,102314.81
2023-04-18T05:35:24.346Z,102309.69
2023-04-18T05:37:51.428Z,102302.44
2023-04-18T05:40:17.908Z,102301.72
2023-04-18T05:42:44.360Z,102312.44
2023-04-18T05:45:12.993Z,102305.09
2023-04-18T05:47:39.718Z,102336.09
2023-04-18T05:50:07.193Z,102323.81
2023-04-18T05:52:33.696Z,102327.59
2023-04-18T05:55:00.144Z,102328.00
2023-04-18T05:57:26.615Z,102320.88
2023-04-18T05:59:53.088Z,102340.44
2023-04-18T06:02:19.610Z,102332.81
2023-04-18T06:04:46.322Z,102324.09
2023-04-18T06:07:12.984Z,102341.53
2023-04-18T06:09:39.624Z,102335.47
2023-04-18T06:12:06.158Z,102336.91
2023-04-18T06:14:32.620Z,102340.34
2023-04-18T06:16:59.300Z,102345.63
2023-04-18T06:19:25.791Z,102353.31
2023-04-18T06:21:53.232Z,102344.88
2023-04-18T06:24:21.111Z,102353.53
2023-04-18T06:26:47.582Z,102348.22
2023-04-18T06:29:14.046Z,102369.31
2023-04-18T06:31:42.260Z,102362.34
2023-04-18T06:34:08.821Z,102372.44
2023-04-18T06:36:35.514Z,102360.31
2023-04-18T06:39:02.045Z,102356.88
2023-04-18T06:41:28.554Z,102369.94
2023-04-18T06:44:03.406Z,102376.59
2023-04-18T06:46:31.832Z,102383.31
2023-04-18T06:48:58.684Z,102358.75
2023-04-18T06:51:25.115Z,102367.41
2023-04-18T06:53:53.609Z,102382.50
2023-04-18T06:56:20.748Z,102374.88
2023-04-18T06:58:48.224Z,102378.94
2023-04-18T07:01:14.746Z,102377.47
2023-04-18T07:03:41.380Z,102386.75
2023-04-18T07:06:10.460Z,102359.41
2023-04-18T07:08:37.359Z,102375.56
2023-04-18T07:11:03.930Z,102321.88
2023-04-18T07:13:30.349Z,102378.81
2023-04-18T07:15:56.809Z,102369.44
2023-04-18T07:18:34.224Z,102386.53
2023-04-18T07:21:03.540Z,102384.88
2023-04-18T07:23:29.933Z,102387.28
2023-04-18T07:25:58.581Z,102389.19
2023-04-18T07:28:25.187Z,102388.03
2023-04-18T07:30:51.694Z,102372.81
2023-04-18T07:33:18.239Z,102377.25
2023-04-18T07:35:46.590Z,102388.31
2023-04-18T07:38:13.162Z,102378.69
2023-04-18T07:40:39.575Z,102368.25
2023-04-18T07:43:06.146Z,102372.88
2023-04-18T07:45:35.657Z,102388.66
2023-04-18T07:48:02.515Z,102376.69
2023-04-18T07:50:29.003Z,102394.94
2023-04-18T07:52:55.599Z,102393.69
2023-04-18T07:55:22.022Z,102401.72
2023-04-18T07:57:50.420Z,102406.13
2023-04-18T08:00:19.959Z,102411.50
2023-04-18T08:02:46.532Z,102407.56
2023-04-18T08:05:13.379Z,102412.88
2023-04-18T08:07:39.807Z,102400.75
2023-04-18T08:10:07.029Z,102395.38
2023-04-18T08:12:33.480Z,102393.47
2023-04-18T08:14:59.981Z,102398.19
2023-04-18T08:17:26.430Z,102396.31
2023-04-18T08:19:52.912Z,102407.91
2023-04-18T08:22:19.389Z,102405.75
2023-04-18T08:25:01.078Z,102397.03
2023-04-18T08:27:31.360Z,102405.94
2023-04-18T08:29:58.196Z,102403.03
2023-04-18T08:32:24.664Z,102405.16
2023-04-18T08:34:51.225Z,102409.13
2023-04-18T08:37:17.739Z,102406.69
2023-04-18T08:39:44.961Z,102411.34
2023-04-18T08:42:15.918Z,102411.53
2023-04-18T08:44:45.110Z,102408.47
2023-04-18T08:47:12.719Z,102411.22
2023-04-18T08:49:39.977Z,102417.94
2023-04-18T08:52:14.744Z,102418.25
2023-04-18T08:54:42.714Z,102418.06
2023-04-18T08:57:12.417Z,102412.19
2023-04-18T08:59:40.142Z,102375.19
2023-04-18T09:02:08.987Z,102384.03
2023-04-18T09:04:49.029Z,102409.44
2023-04-18T09:07:16.954Z,102406.00
2023-04-18T09:09:43.365Z,102412.09
2023-04-18T09:12:11.278Z,102393.84
2023-04-18T09:14:40.155Z,102406.97
2023-04-18T09:17:07.025Z,102393.03
2023-04-18T09:19:33.904Z,102383.47
2023-04-18T09:22:04.724Z,102395.91
2023-04-18T09:24:32.020Z,102407.38
2023-04-18T09:26:59.744Z,102413.59
2023-04-18T09:29:41.494Z,102411.13
2023-04-18T09:32:08.044Z,102395.38
2023-04-18T09:34:38.298Z,102395.63
2023-04-18T09:37:10.135Z,102394.72
2023-04-18T09:39:41.331Z,102389.47
2023-04-18T09:42:08.522Z,102404.22
2023-04-18T09:44:35.031Z,102392.50
2023-04-18T09:47:01.711Z,102410.63
2023-04-18T09:49:28.584Z,102405.91
2023-04-18T09:51:55.856Z,102410.50
2023-04-18T09:54:25.839Z,102347.50
2023-04-18T10:01:18.596Z,102319.50
2023-04-18T10:03:48.751Z,102360.50
2023-04-18T10:07:04.740Z,102397.91
2023-04-18T10:10:16.805Z,102403.56
2023-04-18T10:12:51.720Z,102399.47
2023-04-18T10:15:21.113Z,102377.78
2023-04-18T10:18:07.058Z,102398.28
2023-04-18T10:20:34.854Z,102393.00
2023-04-18T10:23:30.721Z,102388.84
2023-04-18T10:25:57.910Z,102384.06
2023-04-18T10:28:26.587Z,102377.81
2023-04-18T10:30:54.638Z,102385.88
2023-04-18T10:33:40.831Z,102385.00
2023-04-18T10:36:09.478Z,102391.09
2023-04-18T10:38:45.189Z,102390.81
2023-04-18T10:41:25.591Z,102395.31
2023-04-18T10:44:08.402Z,102386.50
2023-04-18T10:46:51.089Z,102385.44
2023-04-18T10:49:22.831Z,102377.16
2023-04-18T10:51:58.793Z,102377.31
2023-04-18T10:54:50.947Z,102397.66
2023-04-18T10:57:17.785Z,102373.34
2023-04-18T10:59:49.534Z,102388.28
2023-04-18T11:02:30.613Z,102384.16
2023-04-18T11:04:59.410Z,102382.31
2023-04-18T11:07:52.680Z,102376.50
2023-04-18T11:10:24.523Z,102363.94
2023-04-18T11:12:51.704Z,102325.41
2023-04-18T11:15:23.564Z,102368.38
2023-04-18T11:18:03.883Z,102371.13
2023-04-18T11:20:46.121Z,102368.22
2023-04-18T11:23:22.872Z,102379.63
2023-04-18T11:25:51.996Z,102357.69
2023-04-18T11:28:20.895Z,102370.78
2023-04-18T11:30:48.051Z,102363.81
2023-04-18T11:33:15.171Z,102371.38
2023-04-18T11:35:43.876Z,102379.91
2023-04-18T11:38:15.426Z,102363.69
2023-04-18T11:40:49.652Z,102337.66
2023-04-18T11:43:21.624Z,102353.75
2023-04-18T11:45:56.283Z,102346.88
2023-04-18T11:48:23.710Z,102366.75
2023-04-18T11:50:50.595Z,102356.03
2023-04-18T11:53:35.354Z,102350.56
2023-04-18T11:56:03.587Z,102365.66
2023-04-18T11:58:34.527Z,102350.41
2023-04-18T12:01:16.374Z,102322.06
2023-04-18T12:03:44.570Z,102317.31
2023-04-18T12:06:13.804Z,102293.19
2023-04-18T12:08:43.556Z,102324.59
2023-04-18T12:11:10.101Z,102277.06
2023-04-18T12:16:37.427Z,102347.47
2023-04-18T12:19:06.599Z,102316.47
2023-04-18T12:21:33.296Z,102361.25
2023-04-18T12:24:00.600Z,102340.50
2023-04-18T12:26:27.475Z,102305.41
2023-04-18T12:28:54.082Z,102338.69
2023-04-18T12:31:22.392Z,102346.19
2023-04-18T12:33:50.678Z,102260.69
2023-04-18T12:36:17.303Z,102321.78
2023-04-18T12:38:44.427Z,102307.00
2023-04-18T12:41:10.962Z,102338.25
2023-04-18T12:43:37.387Z,102332.50
2023-04-18T12:46:03.821Z,102337.19
2023-04-18T12:48:30.292Z,102339.03
2023-04-18T12:50:56.784Z,102314.44
2023-04-18T12:53:23.232Z,102351.31
2023-04-18T12:55:49.685Z,102338.00
2023-04-18T12:58:18.597Z,102335.22
2023-04-18T13:00:45.242Z,102321.41
2023-04-18T13:03:13.466Z,102322.09
2023-04-18T13:05:40.254Z,102324.75
2023-04-18T13:08:16.290Z,102320.38
2023-04-18T13:10:43.926Z,102299.59
2023-04-18T13:13:10.409Z,102316.16
2023-04-18T13:15:37.108Z,102315.09
2023-04-18T13:18:06.219Z,102321.31
2023-04-18T13:20:34.889Z,102319.56
2023-04-18T13:23:04.643Z,102313.63
2023-04-18T13:25:31.362Z,102314.31
2023-04-18T13:27:58.505Z,102311.72
2023-04-18T13:30:25.680Z,102310.44
2023-04-18T13:32:57.333Z,102310.16
2023-04-18T13:35:23.830Z,102312.66
2023-04-18T13:37:50.600Z,102305.19
2023-04-18T13:40:17.509Z,102278.19
2023-04-18T13:42:46.104Z,102302.91
2023-04-18T13:45:12.644Z,102289.31
2023-04-18T13:47:39.400Z,102289.47
2023-04-18T13:50:06.969Z,102298.09
2023-04-18T13:52:33.410Z,102292.69
2023-04-18T13:54:59.847Z,102286.19
2023-04-18T13:57:26.678Z,102257.53
2023-04-18T13:59:53.079Z,102285.56
2023-04-18T14:02:31.671Z,102288.81
2023-04-18T14:05:01.285Z,102253.69
2023-04-18T14:07:27.873Z,102298.59
2023-04-18T14:09:54.593Z,102291.00
2023-04-18T14:12:21.572Z,102291.59
2023-04-18T14:14:47.999Z,102285.38
2023-04-18T14:17:14.642Z,102284.22
2023-04-18T14:19:41.469Z,102283.88
2023-04-18T14:22:07.961Z,102284.56
2023-04-18T14:24:37.140Z,102269.31
2023-04-18T14:29:07.231Z,102212.91
2023-04-18T14:31:14.397Z,102251.38
2023-04-18T14:36:52.106Z,102242.34
2023-04-18T14:39:31.988Z,102189.75
2023-04-18T14:42:43.729Z,102210.09
2023-04-18T14:45:25.213Z,102203.44
2023-04-18T14:48:13.974Z,102259.25
2023-04-18T14:50:44.002Z,102201.44
2023-04-18T14:53:13.163Z,102221.63
2023-04-18T14:55:48.167Z,102199.53
2023-04-18T14:58:14.775Z,102272.88
2023-04-18T15:00:45.794Z,102194.66
2023-04-18T15:03:12.575Z,102265.19
2023-04-18T15:05:46.710Z,102221.75
2023-04-18T15:08:16.534Z,102185.75
2023-04-18T15:10:46.744Z,102255.63
2023-04-18T15:13:13.548Z,102264.34
2023-04-18T15:15:41.613Z,102193.66
2023-04-18T15:18:10.119Z,102217.91
2023-04-18T15:20:44.558Z,102197.44
2023-04-18T15:23:16.501Z,102215.84
2023-04-18T15:25:44.912Z,102207.22
2023-04-18T15:28:27.756Z,102204.47
2023-04-18T15:30:59.712Z,102187.13
2023-04-18T15:33:31.652Z,102222.31
2023-04-18T15:36:00.626Z,102217.59
2023-04-18T15:38:32.288Z,102245.69
2023-04-18T15:41:11.518Z,102222.06
2023-04-18T15:43:49.858Z,102234.16
2023-04-18T15:46:16.773Z,102251.97
2023-04-18T15:48:43.375Z,102220.25
2023-04-18T15:51:14.485Z,102207.16
2023-04-18T15:53:52.245Z,102194.53
2023-04-18T15:56:25.486Z,102228.13
2023-04-18T15:59:09.985Z,102204.53
2023-04-18T16:01:37.093Z,102261.34
2023-04-18T16:04:08.282Z,102223.13
2023-04-18T16:06:37.154Z,102236.22
2023-04-18T16:09:22.531Z,102202.44
2023-04-18T16:11:49.172Z,102212.28
2023-04-18T16:14:16.706Z,102195.63
2023-04-18T16:16:46.348Z,102205.69
2023-04-18T16:19:13.159Z,102221.66
2023-04-18T16:21:44.582Z,102217.13
2023-04-18T16:24:19.999Z,102228.59
2023-04-18T16:26:49.505Z,102196.59
2023-04-18T16:29:18.848Z,102214.97
2023-04-18T16:32:14.625Z,102193.41
2023-04-18T16:34:43.511Z,102256.94
2023-04-18T16:37:10.103Z,102228.09
2023-04-18T16:39:41.663Z,102196.09
2023-04-18T16:42:31.729Z,102255.19
2023-04-18T16:45:07.003Z,102205.25
2023-04-18T16:51:57.717Z,102224.13
2023-04-18T16:54:34.454Z,102186.88
2023-04-18T16:57:01.842Z,102207.41
2023-04-18T16:59:31.273Z,102187.72
2023-04-18T17:05:20.056Z,102223.78
2023-04-18T17:07:53.959Z,102187.41
2023-04-18T17:10:20.762Z,102187.63
2023-04-18T17:12:52.081Z,102249.88
